Time;durP1;ratioP1;P1;durP2;ratioP2;P2;SDS_P1;SDS_P2;PMS_P1;PMS_P2;Temp;Humidity;BMP_temperature;BMP_pressure;BME280_temperature;BME280_humidity;BME280_pressure;Samples;Min_cycle;Max_cycle;Signal;HPM_P1;HPM_P2
2023/05/06 00:02:09;;;;;;;0.60;0.50;;;15.80;99.90;;;;;;5029915;28;20263;-64
2023/05/06 00:04:37;;;;;;;0.60;0.50;;;15.80;99.90;;;;;;5029777;28;20593;-64
2023/05/06 00:07:05;;;;;;;1.08;0.50;;;15.70;99.90;;;;;;5031239;28;20207;-64
2023/05/06 00:09:35;;;;;;;0.60;0.40;;;15.70;99.90;;;;;;5033406;28;20590;-64
2023/05/06 00:12:04;;;;;;;0.50;0.40;;;15.70;99.90;;;;;;5138626;22;20769;-68
2023/05/06 00:14:32;;;;;;;0.57;0.40;;;15.70;99.90;;;;;;5030012;28;20208;-68
2023/05/06 00:17:00;;;;;;;0.82;0.47;;;15.50;99.90;;;;;;5033162;28;20283;-68
2023/05/06 00:19:27;;;;;;;0.57;0.40;;;15.50;99.90;;;;;;5030354;28;20690;-69
2023/05/06 00:21:56;;;;;;;0.50;0.40;;;15.60;99.90;;;;;;5029744;28;20212;-68
2023/05/06 00:24:24;;;;;;;0.80;0.57;;;15.60;99.90;;;;;;5026005;28;20213;-69
2023/05/06 00:26:53;;;;;;;0.50;0.35;;;15.60;99.90;;;;;;5024119;28;20251;-69
2023/05/06 00:29:21;;;;;;;0.60;0.40;;;15.60;99.90;;;;;;5012997;28;20292;-68
2023/05/06 00:31:49;;;;;;;0.60;0.40;;;15.50;99.90;;;;;;5019506;28;20216;-69
2023/05/06 00:34:17;;;;;;;0.60;0.40;;;15.40;99.90;;;;;;5025227;28;20216;-69
2023/05/06 00:36:45;;;;;;;0.50;0.40;;;15.50;99.90;;;;;;5023941;28;20717;-68
2023/05/06 00:39:12;;;;;;;0.60;0.50;;;15.50;99.90;;;;;;5018993;28;20747;-67
2023/05/06 00:41:40;;;;;;;0.57;0.40;;;15.50;99.90;;;;;;5025478;28;20200;-68
2023/05/06 00:44:10;;;;;;;0.52;0.40;;;15.40;99.90;;;;;;5024578;28;20228;-68
2023/05/06 00:46:38;;;;;;;0.50;0.30;;;15.30;99.90;;;;;;5025249;28;20200;-68
2023/05/06 00:49:06;;;;;;;0.52;0.40;;;15.20;99.90;;;;;;5019035;28;20259;-68
2023/05/06 00:51:35;;;;;;;0.70;0.60;;;15.10;99.90;;;;;;5021857;28;20304;-68
2023/05/06 00:54:03;;;;;;;0.60;0.40;;;15.10;99.90;;;;;;5026739;28;20267;-69
2023/05/06 00:56:31;;;;;;;0.55;0.40;;;15.00;99.90;;;;;;5016335;28;20288;-67
2023/05/06 00:59:00;;;;;;;0.60;0.40;;;15.00;99.90;;;;;;5025755;28;20227;-67
2023/05/06 01:01:32;;;;;;;1.45;1.35;;;14.90;99.90;;;;;;5016500;28;20224;-67
2023/05/06 01:04:00;;;;;;;0.50;0.40;;;14.80;99.90;;;;;;5022418;28;20327;-68
2023/05/06 01:06:36;;;;;;;0.60;0.40;;;14.80;99.90;;;;;;5022171;28;20201;-67
2023/05/06 01:09:10;;;;;;;0.50;0.40;;;14.70;99.90;;;;;;5019056;28;20240;-69
2023/05/06 01:11:44;;;;;;;0.50;0.30;;;14.70;99.90;;;;;;5013746;28;20241;-67
2023/05/06 01:14:21;;;;;;;0.57;0.45;;;14.60;99.90;;;;;;5018556;28;20233;-68
2023/05/06 01:16:55;;;;;;;0.60;0.50;;;14.60;99.90;;;;;;5020406;28;20263;-68
2023/05/06 01:19:37;;;;;;;0.60;0.40;;;14.50;99.90;;;;;;5008372;28;20256;-68
2023/05/06 01:22:06;;;;;;;0.70;0.55;;;14.50;99.90;;;;;;5007118;28;20612;-68
2023/05/06 01:24:36;;;;;;;0.70;0.50;;;14.40;99.90;;;;;;5022850;28;20617;-68
2023/05/06 01:27:05;;;;;;;0.60;0.40;;;14.40;99.90;;;;;;5020701;28;20565;-67
2023/05/06 01:29:35;;;;;;;0.60;0.40;;;14.40;99.90;;;;;;5021712;28;20280;-67
2023/05/06 01:32:13;;;;;;;0.60;0.40;;;14.40;99.90;;;;;;5022954;28;20247;-67
2023/05/06 01:34:46;;;;;;;0.65;0.55;;;14.40;99.90;;;;;;5014790;28;20296;-67
2023/05/06 01:37:21;;;;;;;0.85;0.60;;;14.40;99.90;;;;;;5016868;28;20336;-67
2023/05/06 01:39:55;;;;;;;0.60;0.40;;;14.30;99.90;;;;;;5019775;28;21796;-67
2023/05/06 01:42:25;;;;;;;0.60;0.47;;;14.40;99.90;;;;;;5018609;28;20221;-67
2023/05/06 01:44:56;;;;;;;0.50;0.40;;;14.40;99.90;;;;;;5025963;28;20220;-67
2023/05/06 01:47:25;;;;;;;0.65;0.50;;;14.30;99.90;;;;;;5024073;28;20647;-67
2023/05/06 01:49:54;;;;;;;0.60;0.40;;;14.30;99.90;;;;;;5015932;28;20212;-67
2023/05/06 01:52:22;;;;;;;0.68;0.50;;;14.20;99.90;;;;;;5019812;28;20225;-67
2023/05/06 01:54:51;;;;;;;0.60;0.40;;;14.20;99.90;;;;;;5016978;28;20690;-67
2023/05/06 01:57:19;;;;;;;1.00;0.77;;;14.10;99.90;;;;;;5015736;28;20236;-67
2023/05/06 01:59:46;;;;;;;0.60;0.50;;;14.00;99.90;;;;;;5018522;28;20205;-68
2023/05/06 02:02:14;;;;;;;0.60;0.52;;;14.00;99.90;;;;;;5020760;28;20224;-68
2023/05/06 02:04:42;;;;;;;0.57;0.40;;;14.00;99.90;;;;;;5017635;28;20320;-68
2023/05/06 02:07:10;;;;;;;0.70;0.50;;;13.90;99.90;;;;;;5016872;28;20209;-70
2023/05/06 02:09:38;;;;;;;0.70;0.50;;;13.90;99.90;;;;;;5025245;28;20227;-70
2023/05/06 02:12:07;;;;;;;0.70;0.50;;;13.90;99.90;;;;;;5020223;28;20637;-69
2023/05/06 02:14:35;;;;;;;0.70;0.50;;;13.80;99.90;;;;;;5020612;28;20215;-68
2023/05/06 02:17:04;;;;;;;0.70;0.60;;;13.80;99.90;;;;;;5022607;28;20208;-68
2023/05/06 02:19:32;;;;;;;0.70;0.50;;;13.80;99.90;;;;;;5021873;28;20208;-68
2023/05/06 02:22:00;;;;;;;0.60;0.40;;;13.80;99.90;;;;;;5021951;28;20856;-68
2023/05/06 02:24:28;;;;;;;0.90;0.40;;;13.80;99.90;;;;;;5026157;28;20205;-68
2023/05/06 02:26:55;;;;;;;0.50;0.30;;;13.80;99.90;;;;;;5021534;28;20243;-68
2023/05/06 02:29:25;;;;;;;0.60;0.50;;;13.80;99.90;;;;;;5019656;28;20201;-68
2023/05/06 02:31:53;;;;;;;0.70;0.52;;;13.80;99.90;;;;;;5023101;28;20308;-68
2023/05/06 02:34:21;;;;;;;0.60;0.50;;;13.80;99.90;;;;;;5018312;28;20206;-68
2023/05/06 02:36:48;;;;;;;0.57;0.43;;;13.80;99.90;;;;;;5013673;28;20208;-67
2023/05/06 02:39:16;;;;;;;0.60;0.50;;;13.80;99.90;;;;;;5021722;28;20256;-67
2023/05/06 02:41:44;;;;;;;0.60;0.40;;;13.80;99.90;;;;;;5014084;28;20283;-67
2023/05/06 02:44:12;;;;;;;0.60;0.50;;;13.70;99.90;;;;;;5023189;28;20561;-66
2023/05/06 02:46:42;;;;;;;0.70;0.50;;;13.70;99.90;;;;;;5012683;28;20228;-67
2023/05/06 02:49:10;;;;;;;0.80;0.77;;;13.70;99.90;;;;;;5019272;28;20252;-68
2023/05/06 02:51:38;;;;;;;0.60;0.40;;;13.70;99.90;;;;;;5019775;28;20229;-67
2023/05/06 02:54:05;;;;;;;0.63;0.50;;;13.70;99.90;;;;;;5022783;28;20591;-68
2023/05/06 02:56:34;;;;;;;1.35;1.02;;;13.60;99.90;;;;;;5018313;28;20295;-68
2023/05/06 02:59:01;;;;;;;0.60;0.40;;;13.40;99.90;;;;;;5015618;28;20218;-68
2023/05/06 03:01:29;;;;;;;0.70;0.52;;;13.50;99.90;;;;;;5011721;28;20668;-68
2023/05/06 03:03:59;;;;;;;0.70;0.70;;;13.40;99.90;;;;;;5016895;28;20225;-68
2023/05/06 03:06:27;;;;;;;1.65;0.52;;;13.40;99.90;;;;;;5015829;28;20223;-66
2023/05/06 03:08:54;;;;;;;0.60;0.43;;;13.50;99.90;;;;;;5024235;28;20216;-66
2023/05/06 03:11:22;;;;;;;0.60;0.47;;;13.50;99.90;;;;;;5015108;28;20300;-66
2023/05/06 03:13:50;;;;;;;0.60;0.50;;;13.40;99.90;;;;;;5018595;28;20237;-66
2023/05/06 03:16:18;;;;;;;0.50;0.40;;;13.40;99.90;;;;;;5014182;28;20641;-67
2023/05/06 03:18:46;;;;;;;0.68;0.60;;;13.50;99.90;;;;;;5013376;28;20690;-68
2023/05/06 03:21:15;;;;;;;0.90;0.50;;;13.50;99.90;;;;;;5015763;28;20223;-70
2023/05/06 03:23:43;;;;;;;0.60;0.40;;;13.50;99.90;;;;;;5017516;28;20231;-68
2023/05/06 03:26:11;;;;;;;0.70;0.70;;;13.50;99.90;;;;;;5021195;28;20616;-68
2023/05/06 03:28:39;;;;;;;0.70;0.50;;;13.40;99.90;;;;;;5014929;28;20295;-67
2023/05/06 03:31:07;;;;;;;0.60;0.40;;;13.40;99.90;;;;;;5019666;28;20211;-68
2023/05/06 03:33:35;;;;;;;0.60;0.50;;;13.40;99.90;;;;;;5018864;28;20926;-68
2023/05/06 03:36:03;;;;;;;0.60;0.60;;;13.50;99.90;;;;;;5013205;28;20288;-68
2023/05/06 03:38:33;;;;;;;0.90;0.70;;;13.50;99.90;;;;;;5012905;28;20217;-68
2023/05/06 03:41:01;;;;;;;0.60;0.47;;;13.60;99.90;;;;;;5020313;28;20232;-67
2023/05/06 03:43:28;;;;;;;0.60;0.47;;;13.50;99.90;;;;;;5014364;28;20217;-67
2023/05/06 03:45:57;;;;;;;0.60;0.52;;;13.60;99.90;;;;;;5014127;28;20270;-69
2023/05/06 03:48:25;;;;;;;0.60;0.50;;;13.70;99.90;;;;;;5017323;28;20220;-69
2023/05/06 03:50:53;;;;;;;0.50;0.40;;;13.70;99.90;;;;;;5023616;28;20204;-69
2023/05/06 03:53:21;;;;;;;0.60;0.40;;;13.70;99.90;;;;;;5019511;28;20225;-69
2023/05/06 03:55:50;;;;;;;0.60;0.50;;;13.70;99.90;;;;;;5017258;28;20760;-69
2023/05/06 03:58:18;;;;;;;0.60;0.40;;;13.70;99.90;;;;;;5017749;28;20297;-69
2023/05/06 04:00:46;;;;;;;0.60;0.40;;;13.60;99.90;;;;;;5016718;28;20245;-69
2023/05/06 04:03:14;;;;;;;0.60;0.40;;;13.40;99.90;;;;;;5020011;28;20233;-68
2023/05/06 04:05:42;;;;;;;1.60;0.60;;;13.30;99.90;;;;;;5019826;28;20213;-69
2023/05/06 04:08:10;;;;;;;0.50;0.40;;;13.20;99.90;;;;;;5016174;28;20236;-69
2023/05/06 04:10:39;;;;;;;0.65;0.60;;;13.30;99.90;;;;;;5016337;28;20305;-69
2023/05/06 04:13:09;;;;;;;0.60;0.40;;;13.30;99.90;;;;;;5015512;28;20613;-69
2023/05/06 04:15:37;;;;;;;0.60;0.40;;;13.40;99.90;;;;;;5022788;28;20259;-69
2023/05/06 04:18:06;;;;;;;0.50;0.40;;;13.40;99.90;;;;;;5017539;28;20725;-69
2023/05/06 04:20:34;;;;;;;0.60;0.40;;;13.40;99.90;;;;;;5015540;28;20209;-69
2023/05/06 04:23:02;;;;;;;0.60;0.50;;;13.50;99.90;;;;;;5022192;28;20294;-70
2023/05/06 04:25:30;;;;;;;0.73;0.60;;;13.50;99.90;;;;;;5019301;28;20624;-70
2023/05/06 04:27:58;;;;;;;0.60;0.40;;;13.50;99.90;;;;;;5015547;28;20209;-69
2023/05/06 04:30:27;;;;;;;0.68;0.60;;;13.60;99.90;;;;;;5015846;28;20220;-70
2023/05/06 04:32:55;;;;;;;0.60;0.40;;;13.60;99.90;;;;;;5015872;28;20347;-69
2023/05/06 04:35:23;;;;;;;0.60;0.40;;;13.60;99.90;;;;;;5018196;28;20579;-69
2023/05/06 04:37:52;;;;;;;0.70;0.60;;;13.60;99.90;;;;;;5017217;28;20219;-68
2023/05/06 04:40:20;;;;;;;0.60;0.50;;;13.70;99.90;;;;;;5016913;28;20584;-70
2023/05/06 04:42:48;;;;;;;1.75;0.52;;;13.70;99.90;;;;;;5017192;28;20303;-70
2023/05/06 04:45:16;;;;;;;0.60;0.43;;;13.80;99.90;;;;;;5016409;28;20664;-70
2023/05/06 04:47:46;;;;;;;0.73;0.47;;;13.80;99.90;;;;;;5021767;28;20621;-70
2023/05/06 04:50:14;;;;;;;0.60;0.50;;;13.90;99.90;;;;;;5017247;28;20201;-70
2023/05/06 04:52:42;;;;;;;0.50;0.40;;;13.90;99.90;;;;;;5015835;28;20221;-70
2023/05/06 04:55:10;;;;;;;0.60;0.60;;;13.90;99.90;;;;;;5012411;28;20292;-70
2023/05/06 04:57:39;;;;;;;0.50;0.40;;;14.00;99.90;;;;;;5017603;28;20204;-70
2023/05/06 05:00:09;;;;;;;0.60;0.40;;;14.10;99.90;;;;;;5011912;28;20207;-70
2023/05/06 05:02:37;;;;;;;0.60;0.43;;;14.10;99.90;;;;;;5014718;28;20256;-70
2023/05/06 05:05:07;;;;;;;0.70;0.50;;;14.20;99.90;;;;;;5016215;28;20284;-70
2023/05/06 05:07:36;;;;;;;0.63;0.55;;;14.10;99.90;;;;;;5012852;28;20729;-68
2023/05/06 05:10:04;;;;;;;0.60;0.40;;;13.90;99.90;;;;;;5014399;28;20293;-67
2023/05/06 05:12:32;;;;;;;0.60;0.50;;;13.90;99.90;;;;;;5015625;28;20328;-68
2023/05/06 05:15:00;;;;;;;0.60;0.50;;;13.90;99.90;;;;;;5010138;28;20205;-68
2023/05/06 05:17:28;;;;;;;0.60;0.50;;;14.10;99.90;;;;;;5017926;28;20225;-68
2023/05/06 05:19:56;;;;;;;0.50;0.40;;;14.10;99.90;;;;;;5018449;28;20731;-69
2023/05/06 05:22:25;;;;;;;1.50;0.50;;;14.00;99.90;;;;;;5018763;28;20231;-68
2023/05/06 05:24:53;;;;;;;0.60;0.40;;;14.10;99.90;;;;;;5020657;28;20267;-68
2023/05/06 05:27:21;;;;;;;0.60;0.50;;;14.20;99.90;;;;;;5020056;28;20312;-69
2023/05/06 05:29:49;;;;;;;0.60;0.40;;;14.40;99.90;;;;;;5021403;28;20408;-71
2023/05/06 05:32:18;;;;;;;0.70;0.50;;;14.50;99.90;;;;;;5023135;28;20228;-69
2023/05/06 05:34:47;;;;;;;0.57;0.40;;;14.50;99.90;;;;;;5017380;28;20209;-69
2023/05/06 05:37:14;;;;;;;0.70;0.57;;;14.60;99.90;;;;;;5018072;28;20221;-69
2023/05/06 05:39:44;;;;;;;0.60;0.40;;;14.60;99.90;;;;;;5014558;28;20229;-68
2023/05/06 05:42:12;;;;;;;0.70;0.55;;;14.50;99.90;;;;;;5019522;28;20224;-69
2023/05/06 05:44:39;;;;;;;0.70;0.50;;;14.50;99.90;;;;;;5012799;28;20201;-69
2023/05/06 05:47:07;;;;;;;0.70;0.50;;;14.50;99.90;;;;;;5014030;28;20683;-69
2023/05/06 05:49:35;;;;;;;0.60;0.50;;;14.50;99.90;;;;;;5015407;28;20283;-69
2023/05/06 05:52:03;;;;;;;1.00;0.70;;;14.60;99.90;;;;;;5022606;28;20236;-69
2023/05/06 05:54:31;;;;;;;1.05;0.60;;;14.60;99.90;;;;;;5018773;28;20894;-70
2023/05/06 05:57:01;;;;;;;0.52;0.40;;;14.40;99.90;;;;;;5013923;28;20208;-69
2023/05/06 05:59:29;;;;;;;0.63;0.63;;;14.40;99.90;;;;;;5019620;28;20288;-69
2023/05/06 06:01:57;;;;;;;0.60;0.50;;;14.50;99.90;;;;;;5016155;28;20668;-69
2023/05/06 06:04:25;;;;;;;0.90;0.85;;;14.60;99.90;;;;;;5022455;28;20616;-70
2023/05/06 06:06:53;;;;;;;0.60;0.40;;;14.70;99.90;;;;;;5022429;28;20213;-69
2023/05/06 06:09:21;;;;;;;0.50;0.30;;;14.80;99.90;;;;;;5019478;28;20296;-67
2023/05/06 06:11:49;;;;;;;0.60;0.60;;;14.90;99.90;;;;;;5016303;28;20283;-68
2023/05/06 06:14:18;;;;;;;0.60;0.40;;;15.10;99.90;;;;;;5021147;28;20319;-68
2023/05/06 06:16:46;;;;;;;0.60;0.50;;;15.30;99.90;;;;;;5013029;28;20631;-69
2023/05/06 06:19:14;;;;;;;0.60;0.40;;;15.50;99.90;;;;;;5013579;28;20296;-71
2023/05/06 06:21:45;;;;;;;1.70;0.50;;;15.70;99.90;;;;;;5010731;28;20198;-71
2023/05/06 06:24:13;;;;;;;0.65;0.50;;;15.70;99.90;;;;;;5020115;28;20672;-70
2023/05/06 06:26:41;;;;;;;0.90;0.73;;;15.70;99.90;;;;;;5016554;28;20237;-70
2023/05/06 06:29:09;;;;;;;0.60;0.40;;;15.90;99.90;;;;;;5009945;28;20237;-70
2023/05/06 06:31:38;;;;;;;1.13;0.60;;;16.00;99.90;;;;;;5019461;28;20321;-70
2023/05/06 06:34:08;;;;;;;0.60;0.50;;;16.10;99.90;;;;;;5018093;28;20217;-70
2023/05/06 06:36:39;;;;;;;0.50;0.40;;;16.30;99.90;;;;;;5020941;28;20221;-70
2023/05/06 06:39:07;;;;;;;0.70;0.50;;;16.50;99.90;;;;;;5019903;28;20565;-69
2023/05/06 06:41:35;;;;;;;0.60;0.50;;;16.60;99.90;;;;;;5012449;28;20213;-70
2023/05/06 06:44:03;;;;;;;0.60;0.40;;;16.60;99.90;;;;;;5021353;28;20216;-70
2023/05/06 06:46:31;;;;;;;0.60;0.50;;;16.50;99.90;;;;;;5021612;28;20288;-69
2023/05/06 06:49:00;;;;;;;0.60;0.43;;;16.50;99.90;;;;;;5024668;28;20209;-70
2023/05/06 06:51:28;;;;;;;0.60;0.50;;;16.60;99.90;;;;;;5005538;28;20698;-69
2023/05/06 06:53:56;;;;;;;0.60;0.50;;;16.80;99.90;;;;;;5014939;28;20221;-69
2023/05/06 06:56:24;;;;;;;0.57;0.40;;;16.90;99.90;;;;;;5015806;28;20694;-70
2023/05/06 06:58:52;;;;;;;0.60;0.50;;;17.00;99.90;;;;;;5014263;28;20297;-69
2023/05/06 07:01:20;;;;;;;0.55;0.43;;;17.10;99.90;;;;;;5006799;28;20205;-69
2023/05/06 07:03:48;;;;;;;0.60;0.55;;;17.30;99.90;;;;;;5012233;28;20217;-70
2023/05/06 07:06:17;;;;;;;0.70;0.47;;;17.50;99.90;;;;;;5016476;28;20284;-69
2023/05/06 07:08:45;;;;;;;0.60;0.52;;;17.60;99.90;;;;;;5016857;28;20217;-70
2023/05/06 07:11:13;;;;;;;0.55;0.40;;;17.70;99.90;;;;;;5009912;28;20205;-70
2023/05/06 07:13:41;;;;;;;0.60;0.60;;;17.70;99.90;;;;;;5013230;28;20315;-69
2023/05/06 07:16:09;;;;;;;0.63;0.40;;;17.70;99.90;;;;;;5013302;28;20212;-69
2023/05/06 07:18:37;;;;;;;1.67;0.70;;;17.80;99.90;;;;;;5014638;28;20221;-70
2023/05/06 07:21:05;;;;;;;0.77;0.70;;;17.90;99.90;;;;;;5011905;28;20227;-70
2023/05/06 07:23:43;;;;;;;0.60;0.50;;;17.80;99.90;;;;;;4998931;28;20216;-69
2023/05/06 07:26:11;;;;;;;0.70;0.40;;;17.50;99.90;;;;;;5016366;28;20694;-70
2023/05/06 07:28:39;;;;;;;1.00;0.70;;;17.40;99.90;;;;;;5015267;28;20213;-69
2023/05/06 07:31:07;;;;;;;0.85;0.80;;;17.40;99.90;;;;;;5011348;28;20284;-69
2023/05/06 07:33:35;;;;;;;0.60;0.40;;;17.40;99.90;;;;;;5008528;28;20563;-70
2023/05/06 07:36:03;;;;;;;0.70;0.57;;;17.60;99.90;;;;;;5010103;28;20300;-70
2023/05/06 07:38:31;;;;;;;0.65;0.57;;;17.60;99.90;;;;;;5009891;28;20360;-70
2023/05/06 07:41:00;;;;;;;0.60;0.40;;;17.70;99.90;;;;;;5011723;28;20213;-69
2023/05/06 07:43:28;;;;;;;0.70;0.60;;;17.80;99.90;;;;;;5008127;28;20221;-69
2023/05/06 07:46:01;;;;;;;0.82;0.82;;;17.90;99.90;;;;;;5014253;28;20240;-69
2023/05/06 07:48:29;;;;;;;0.60;0.60;;;18.10;99.90;;;;;;5009172;28;20220;-69
2023/05/06 07:50:58;;;;;;;0.60;0.45;;;18.30;99.90;;;;;;5016057;28;20574;-70
2023/05/06 07:53:25;;;;;;;0.82;0.55;;;18.30;99.90;;;;;;5011007;28;20224;-68
2023/05/06 07:55:57;;;;;;;0.70;0.60;;;18.50;99.90;;;;;;5008859;28;20209;-69
2023/05/06 07:58:26;;;;;;;0.60;0.40;;;18.60;99.90;;;;;;5007520;28;20225;-70
2023/05/06 08:00:54;;;;;;;0.60;0.50;;;18.70;99.90;;;;;;5018554;28;20209;-69
2023/05/06 08:03:22;;;;;;;0.80;0.70;;;18.70;99.90;;;;;;5009211;28;20258;-70
2023/05/06 08:09:57;;;;;;;0.85;0.65;;;18.90;99.90;;;;;;5006104;28;20193;-70
2023/05/06 08:12:25;;;;;;;0.60;0.50;;;19.10;99.90;;;;;;5020957;28;20241;-69
2023/05/06 08:14:54;;;;;;;0.60;0.40;;;19.40;99.90;;;;;;5010003;28;20233;-70
2023/05/06 08:17:22;;;;;;;0.60;0.40;;;19.50;99.90;;;;;;5003958;28;20247;-69
2023/05/06 08:19:50;;;;;;;0.60;0.40;;;19.80;99.90;;;;;;5014187;28;20273;-70
2023/05/06 08:22:18;;;;;;;0.60;0.40;;;20.10;99.90;;;;;;5002712;28;20722;-69
2023/05/06 08:24:45;;;;;;;0.60;0.40;;;20.10;99.90;;;;;;4993765;28;20277;-70
2023/05/06 08:27:13;;;;;;;0.60;0.40;;;20.10;99.90;;;;;;5004102;28;20212;-69
2023/05/06 08:29:41;;;;;;;0.60;0.40;;;20.00;99.90;;;;;;5019367;28;20223;-73
2023/05/06 08:32:10;;;;;;;0.60;0.45;;;19.80;99.90;;;;;;5010431;28;20236;-70
2023/05/06 08:34:38;;;;;;;0.50;0.40;;;20.00;99.90;;;;;;5027616;28;20223;-70
2023/05/06 08:37:06;;;;;;;0.50;0.40;;;19.80;99.90;;;;;;5021207;28;20237;-70
2023/05/06 08:39:34;;;;;;;0.60;0.40;;;19.90;99.90;;;;;;5020364;28;20229;-70
2023/05/06 08:42:03;;;;;;;0.60;0.50;;;20.30;99.90;;;;;;5006537;28;20202;-70
2023/05/06 08:44:32;;;;;;;0.60;0.40;;;20.30;99.90;;;;;;5025529;28;20219;-70
2023/05/06 08:47:00;;;;;;;0.60;0.40;;;20.50;99.90;;;;;;5017490;28;20201;-70
2023/05/06 08:49:29;;;;;;;0.73;0.40;;;20.70;99.90;;;;;;5021321;28;20212;-70
2023/05/06 08:51:58;;;;;;;0.60;0.30;;;21.10;99.90;;;;;;5031694;28;20213;-69
2023/05/06 08:54:26;;;;;;;0.60;0.45;;;20.90;99.90;;;;;;5017860;28;20705;-69
2023/05/06 08:56:57;;;;;;;0.50;0.30;;;20.80;99.90;;;;;;5018897;28;20220;-69
2023/05/06 08:59:29;;;;;;;0.60;0.40;;;20.90;99.90;;;;;;5015282;28;20213;-70
2023/05/06 09:01:56;;;;;;;0.80;0.55;;;21.10;99.90;;;;;;5020889;28;20211;-69
2023/05/06 09:04:24;;;;;;;0.70;0.60;;;21.40;99.90;;;;;;5024458;28;20735;-68
2023/05/06 09:06:54;;;;;;;0.60;0.50;;;21.60;99.90;;;;;;5013864;28;20210;-69
2023/05/06 09:09:21;;;;;;;0.60;0.40;;;21.80;99.90;;;;;;5012451;28;20202;-68
2023/05/06 09:11:52;;;;;;;0.60;0.43;;;21.90;99.90;;;;;;5012343;28;20243;-69
2023/05/06 09:14:21;;;;;;;0.60;0.40;;;22.20;99.90;;;;;;5012725;28;20253;-70
2023/05/06 09:16:51;;;;;;;0.85;0.40;;;22.80;99.90;;;;;;5021011;28;20209;-69
2023/05/06 09:19:21;;;;;;;0.57;0.30;;;23.20;99.90;;;;;;5014691;28;20207;-70
2023/05/06 09:21:50;;;;;;;0.60;0.40;;;23.40;99.90;;;;;;5019165;28;20210;-69
2023/05/06 09:24:20;;;;;;;0.60;0.30;;;23.30;99.90;;;;;;5022684;28;20642;-69
2023/05/06 09:26:48;;;;;;;0.60;0.40;;;23.20;99.90;;;;;;5015544;28;20207;-69
2023/05/06 09:29:16;;;;;;;0.60;0.40;;;23.30;99.90;;;;;;5024788;28;20234;-68
2023/05/06 09:31:45;;;;;;;0.60;0.40;;;23.30;99.90;;;;;;5015380;28;20614;-68
2023/05/06 09:34:14;;;;;;;0.60;0.40;;;23.30;99.90;;;;;;5016891;28;20303;-69
2023/05/06 09:36:42;;;;;;;0.50;0.30;;;22.80;99.90;;;;;;5016439;28;20309;-69
2023/05/06 09:39:10;;;;;;;0.50;0.30;;;23.00;99.90;;;;;;5018060;28;20234;-69
2023/05/06 09:41:39;;;;;;;0.75;0.40;;;23.10;99.90;;;;;;5018627;28;20744;-70
2023/05/06 09:44:07;;;;;;;0.60;0.40;;;23.00;99.90;;;;;;5027474;28;20222;-69
2023/05/06 09:46:36;;;;;;;0.60;0.35;;;23.00;99.90;;;;;;5018927;28;20296;-68
2023/05/06 09:49:04;;;;;;;0.50;0.30;;;22.80;99.90;;;;;;5020590;28;20946;-69
2023/05/06 09:51:32;;;;;;;0.60;0.40;;;22.60;99.90;;;;;;5023623;28;20225;-69
2023/05/06 09:54:01;;;;;;;0.50;0.40;;;22.70;99.90;;;;;;5018576;28;20643;-70
2023/05/06 09:56:31;;;;;;;0.50;0.30;;;22.50;99.90;;;;;;5015337;28;20725;-69
2023/05/06 09:59:03;;;;;;;0.60;0.40;;;22.40;99.90;;;;;;5025846;28;20216;-69
2023/05/06 10:01:31;;;;;;;0.60;0.43;;;22.20;99.90;;;;;;5011873;28;20607;-70
2023/05/06 10:04:07;;;;;;;0.50;0.40;;;22.30;99.90;;;;;;5017474;28;20297;-69
2023/05/06 10:06:38;;;;;;;0.60;0.40;;;22.60;99.90;;;;;;5010122;28;20577;-69
2023/05/06 10:09:07;;;;;;;0.60;0.40;;;22.90;99.90;;;;;;5012301;28;20696;-69
2023/05/06 10:11:36;;;;;;;0.50;0.40;;;23.20;99.90;;;;;;5011385;28;20211;-68
2023/05/06 10:14:06;;;;;;;0.50;0.30;;;23.30;99.90;;;;;;5011534;28;20752;-69
2023/05/06 10:16:35;;;;;;;0.60;0.40;;;23.80;99.90;;;;;;5011343;28;20231;-69
2023/05/06 10:19:06;;;;;;;0.60;0.40;;;23.90;99.90;;;;;;5003875;28;20200;-68
2023/05/06 10:21:37;;;;;;;0.50;0.30;;;23.80;99.90;;;;;;5011337;28;20211;-69
2023/05/06 10:24:07;;;;;;;0.50;0.40;;;23.50;99.90;;;;;;5003062;28;20314;-69
2023/05/06 10:26:37;;;;;;;0.50;0.40;;;23.50;99.90;;;;;;5011198;28;20217;-69
2023/05/06 10:29:09;;;;;;;0.60;0.40;;;23.90;99.90;;;;;;5012830;28;20631;-69
2023/05/06 10:31:42;;;;;;;0.50;0.30;;;24.20;99.90;;;;;;5027724;28;20574;-69
2023/05/06 10:34:10;;;;;;;0.50;0.40;;;24.10;99.40;;;;;;5017776;28;20195;-68
2023/05/06 10:36:41;;;;;;;0.60;0.50;;;24.10;99.30;;;;;;5011160;28;20233;-68
2023/05/06 10:39:12;;;;;;;0.55;0.40;;;24.10;99.80;;;;;;5011628;28;20570;-69
2023/05/06 10:41:40;;;;;;;0.60;0.43;;;24.30;99.90;;;;;;5012913;28;20323;-69
2023/05/06 10:44:10;;;;;;;0.60;0.40;;;24.50;99.90;;;;;;5013284;28;20286;-69
2023/05/06 10:46:57;;;;;;;0.60;0.40;;;24.90;99.90;;;;;;5015381;28;20286;-68
2023/05/06 10:49:24;;;;;;;0.60;0.40;;;25.20;99.90;;;;;;5011319;28;20238;-70
2023/05/06 10:52:11;;;;;;;0.57;0.30;;;25.70;99.10;;;;;;5009366;28;20211;-69
2023/05/06 10:54:50;;;;;;;0.60;0.30;;;25.60;98.70;;;;;;5015940;28;20208;-72
2023/05/06 10:57:19;;;;;;;0.50;0.30;;;25.50;98.20;;;;;;5013506;28;20216;-70
2023/05/06 10:59:49;;;;;;;0.50;0.30;;;25.80;98.40;;;;;;5025253;28;20670;-69
2023/05/06 11:02:18;;;;;;;0.50;0.40;;;25.90;99.90;;;;;;5024557;28;20317;-69
2023/05/06 11:04:51;;;;;;;0.60;0.47;;;26.00;97.90;;;;;;5020592;28;20214;-70
2023/05/06 11:07:23;;;;;;;0.60;0.40;;;25.40;97.40;;;;;;5010984;28;20250;-69
2023/05/06 11:09:56;;;;;;;0.50;0.40;;;25.20;97.50;;;;;;5010724;28;20208;-70
2023/05/06 11:12:45;;;;;;;0.60;0.40;;;25.00;97.20;;;;;;5010879;28;20251;-70
2023/05/06 11:15:24;;;;;;;0.60;0.40;;;25.00;97.80;;;;;;5004761;28;20208;-71
2023/05/06 11:17:54;;;;;;;0.60;0.40;;;25.50;97.20;;;;;;5010860;28;20271;-71
2023/05/06 11:20:23;;;;;;;0.60;0.50;;;25.90;96.90;;;;;;5010757;28;20208;-71
2023/05/06 11:22:51;;;;;;;0.60;0.40;;;26.00;97.40;;;;;;5010737;28;20232;-70
2023/05/06 11:25:38;;;;;;;0.68;0.40;;;26.60;96.80;;;;;;5010989;28;20206;-70
2023/05/06 11:28:10;;;;;;;0.50;0.30;;;26.60;95.70;;;;;;5008765;28;20233;-70
2023/05/06 11:30:41;;;;;;;0.60;0.40;;;26.90;96.10;;;;;;5024657;28;20212;-70
2023/05/06 11:33:19;;;;;;;0.60;0.40;;;26.60;95.60;;;;;;5013259;28;20632;-70
2023/05/06 11:35:48;;;;;;;0.60;0.40;;;26.70;94.90;;;;;;5010822;28;20219;-70
2023/05/06 11:38:16;;;;;;;0.80;0.60;;;26.90;94.60;;;;;;5010973;28;20209;-70
2023/05/06 11:40:44;;;;;;;0.70;0.50;;;27.20;94.80;;;;;;5009926;28;20296;-70
2023/05/06 11:43:13;;;;;;;0.60;0.50;;;27.30;94.40;;;;;;5010538;28;20225;-71
2023/05/06 11:45:43;;;;;;;0.60;0.40;;;27.30;93.90;;;;;;5010668;28;20240;-71
2023/05/06 11:48:12;;;;;;;0.60;0.40;;;27.30;93.20;;;;;;5022735;28;20647;-70
2023/05/06 11:50:45;;;;;;;0.60;0.40;;;26.60;94.40;;;;;;5029398;28;20239;-70
2023/05/06 11:53:15;;;;;;;0.60;0.30;;;26.20;94.00;;;;;;5010522;28;20221;-69
2023/05/06 11:55:43;;;;;;;0.60;0.40;;;25.50;94.30;;;;;;5010168;28;20270;-69
2023/05/06 11:58:15;;;;;;;0.93;0.40;;;25.40;95.10;;;;;;5010789;28;20212;-71
2023/05/06 12:00:50;;;;;;;0.60;0.40;;;25.00;95.30;;;;;;5024890;28;20215;-69
2023/05/06 12:03:19;;;;;;;0.60;0.50;;;25.00;95.30;;;;;;5028597;28;20305;-70
2023/05/06 12:05:48;;;;;;;0.60;0.40;;;24.80;95.30;;;;;;5016274;28;20222;-69
2023/05/06 12:08:18;;;;;;;0.60;0.40;;;24.70;95.50;;;;;;5014152;28;20319;-70
2023/05/06 12:10:56;;;;;;;1.50;0.95;;;24.70;95.80;;;;;;5013681;28;20211;-69
2023/05/06 12:13:24;;;;;;;0.50;0.40;;;24.50;95.30;;;;;;5014098;28;20239;-69
2023/05/06 12:15:54;;;;;;;0.50;0.30;;;24.60;95.90;;;;;;5013869;28;20231;-70
2023/05/06 12:18:23;;;;;;;0.50;0.30;;;24.30;95.10;;;;;;5019995;28;20203;-69
2023/05/06 12:20:53;;;;;;;0.55;0.40;;;24.20;95.30;;;;;;5031958;28;20239;-69
2023/05/06 12:23:21;;;;;;;0.60;0.50;;;24.40;95.80;;;;;;5019572;28;20227;-69
2023/05/06 12:26:00;;;;;;;0.60;0.30;;;24.50;95.70;;;;;;5013532;28;20218;-70
2023/05/06 12:28:28;;;;;;;0.60;0.30;;;24.30;96.30;;;;;;5013902;28;20207;-70
2023/05/06 12:30:57;;;;;;;0.50;0.30;;;24.10;96.20;;;;;;5027338;28;20247;-69
2023/05/06 12:33:25;;;;;;;0.50;0.40;;;24.00;96.40;;;;;;5022941;28;20322;-69
2023/05/06 12:35:57;;;;;;;0.60;0.40;;;24.00;96.80;;;;;;5013080;28;20683;-70
2023/05/06 12:38:25;;;;;;;0.60;0.45;;;23.50;97.00;;;;;;5013117;28;20571;-70
2023/05/06 12:40:54;;;;;;;0.60;0.40;;;23.10;97.20;;;;;;5013175;28;20218;-69
2023/05/06 12:43:29;;;;;;;0.60;0.30;;;23.00;97.50;;;;;;5013594;28;20231;-69
2023/05/06 12:46:04;;;;;;;0.60;0.40;;;23.00;97.70;;;;;;5013178;28;20207;-69
2023/05/06 12:48:32;;;;;;;0.50;0.38;;;23.10;98.30;;;;;;5013393;28;20215;-69
2023/05/06 12:51:00;;;;;;;0.60;0.40;;;23.00;97.30;;;;;;5013362;28;20210;-69
2023/05/06 12:53:33;;;;;;;0.60;0.30;;;23.10;97.10;;;;;;5013290;28;20250;-70
2023/05/06 12:56:01;;;;;;;0.60;0.40;;;23.20;98.30;;;;;;5013510;28;20205;-70
2023/05/06 12:58:29;;;;;;;0.60;0.40;;;23.10;97.80;;;;;;5013358;28;20689;-70
2023/05/06 13:00:57;;;;;;;0.60;0.40;;;23.10;97.60;;;;;;5025765;28;20308;-70
2023/05/06 13:03:28;;;;;;;0.60;0.40;;;23.10;98.10;;;;;;5026057;28;20223;-71